WADD/DPS METAR and TAF weather

Enter ICAO airport designator
Station Type Date Time Source
WADD METAR 2022/06/29 00:00 UTC NOAA

WADD 290000Z 35004KT 7000 -RA BKN015 24/23 Q1010 TEMPO TL0100 7000 -RA


Station Type Date Time Source
WADD Decoded METAR 2022/06/29 00:00 UTC NOAA

Station name not available
Jun 28, 2022 - 08:00 PM EDT / 2022.06.29 0000 UTC
Wind: from the N (350 degrees) at 5 MPH (4 KT):0
Visibility: 4 mile(s):0
Sky conditions: mostly cloudy
Weather: light rain
Temperature: 75 F (24 C)
Dew Point: 73 F (23 C)
Relative Humidity: 94%
Pressure (altimeter): 29.83 in. Hg (1010 hPa)
ob: WADD 290000Z 35004KT 7000 -RA BKN015 24/23 Q1010 TEMPO TL0100 7000 -RA
cycle: 0

Station Type Date Time Source
WADD TAF 2022/06/28 21:57 UTC NOAA

TAF
AMD TAF
AMD WADD 282136Z 2821/2918 12012KT 9999 SCT016
TEMPO 2821/2900 5000 RA BKN015

Example: see airport list